sensor_id;sensor_type;location;lat;lon;timestamp;temperature;humidity
51982;DHT22;37998;53.416;6.730;2022-12-26T00:00:13;8.30;99.90
51982;DHT22;37998;53.416;6.730;2022-12-26T00:02:40;8.30;99.90
51982;DHT22;37998;53.416;6.730;2022-12-26T00:05:06;8.30;99.90
51982;DHT22;37998;53.416;6.730;2022-12-26T00:07:32;8.30;99.90
51982;DHT22;37998;53.416;6.730;2022-12-26T00:09:57;7.80;99.90
51982;DHT22;37998;53.416;6.730;2022-12-26T00:12:23;8.30;99.90
51982;DHT22;37998;53.416;6.730;2022-12-26T00:14:49;8.10;99.90
51982;DHT22;37998;53.416;6.730;2022-12-26T00:17:14;8.80;99.90
51982;DHT22;37998;53.416;6.730;2022-12-26T00:19:40;8.20;99.90
51982;DHT22;37998;53.416;6.730;2022-12-26T00:22:06;8.20;99.90
51982;DHT22;37998;53.416;6.730;2022-12-26T00:24:31;8.30;99.90
51982;DHT22;37998;53.416;6.730;2022-12-26T00:26:57;8.20;99.90
51982;DHT22;37998;53.416;6.730;2022-12-26T00:29:22;8.20;99.90
51982;DHT22;37998;53.416;6.730;2022-12-26T00:31:48;8.20;99.90
51982;DHT22;37998;53.416;6.730;2022-12-26T00:34:14;8.20;99.90
51982;DHT22;37998;53.416;6.730;2022-12-26T00:36:40;8.20;99.90
51982;DHT22;37998;53.416;6.730;2022-12-26T00:39:06;8.20;99.90
51982;DHT22;37998;53.416;6.730;2022-12-26T00:41:32;8.20;99.90
51982;DHT22;37998;53.416;6.730;2022-12-26T00:43:58;8.20;99.90
51982;DHT22;37998;53.416;6.730;2022-12-26T00:46:25;8.20;99.90
51982;DHT22;37998;53.416;6.730;2022-12-26T00:48:50;8.20;99.90
51982;DHT22;37998;53.416;6.730;2022-12-26T00:51:16;8.20;99.90
51982;DHT22;37998;53.416;6.730;2022-12-26T00:53:42;8.20;99.90
51982;DHT22;37998;53.416;6.730;2022-12-26T00:56:08;8.20;99.90
51982;DHT22;37998;53.416;6.730;2022-12-26T00:58:34;8.20;99.90
51982;DHT22;37998;53.416;6.730;2022-12-26T01:03:39;8.20;99.90
51982;DHT22;37998;53.416;6.730;2022-12-26T01:06:05;9.20;99.90
51982;DHT22;37998;53.416;6.730;2022-12-26T01:08:31;8.20;99.90
51982;DHT22;37998;53.416;6.730;2022-12-26T01:11:00;8.20;99.90
51982;DHT22;37998;53.416;6.730;2022-12-26T01:13:26;8.20;99.90
51982;DHT22;37998;53.416;6.730;2022-12-26T01:15:52;8.30;99.90
51982;DHT22;37998;53.416;6.730;2022-12-26T01:18:19;8.20;99.90
51982;DHT22;37998;53.416;6.730;2022-12-26T01:20:45;8.30;99.90
51982;DHT22;37998;53.416;6.730;2022-12-26T01:23:10;8.30;99.90
51982;DHT22;37998;53.416;6.730;2022-12-26T01:25:38;8.30;99.90
51982;DHT22;37998;53.416;6.730;2022-12-26T01:28:04;8.30;99.90
51982;DHT22;37998;53.416;6.730;2022-12-26T01:30:29;8.30;99.90
51982;DHT22;37998;53.416;6.730;2022-12-26T01:32:56;8.30;99.90
51982;DHT22;37998;53.416;6.730;2022-12-26T01:35:22;8.30;99.90
51982;DHT22;37998;53.416;6.730;2022-12-26T01:37:47;8.30;99.90
51982;DHT22;37998;53.416;6.730;2022-12-26T01:40:13;8.30;99.90
51982;DHT22;37998;53.416;6.730;2022-12-26T01:42:40;8.30;99.90
51982;DHT22;37998;53.416;6.730;2022-12-26T01:45:30;8.30;99.90
51982;DHT22;37998;53.416;6.730;2022-12-26T01:48:11;8.30;99.90
51982;DHT22;37998;53.416;6.730;2022-12-26T01:50:57;8.30;99.90
51982;DHT22;37998;53.416;6.730;2022-12-26T01:53:30;8.30;99.90
51982;DHT22;37998;53.416;6.730;2022-12-26T01:56:03;8.30;99.90
51982;DHT22;37998;53.416;6.730;2022-12-26T01:58:35;8.30;99.90
51982;DHT22;37998;53.416;6.730;2022-12-26T02:01:04;8.30;99.90
51982;DHT22;37998;53.416;6.730;2022-12-26T02:03:31;8.30;99.90
51982;DHT22;37998;53.416;6.730;2022-12-26T02:06:15;8.30;99.90
51982;DHT22;37998;53.416;6.730;2022-12-26T02:08:42;8.30;99.90
51982;DHT22;37998;53.416;6.730;2022-12-26T02:11:16;8.30;99.90
51982;DHT22;37998;53.416;6.730;2022-12-26T02:13:43;8.30;99.90
51982;DHT22;37998;53.416;6.730;2022-12-26T02:16:12;8.40;99.90
51982;DHT22;37998;53.416;6.730;2022-12-26T02:18:38;8.30;99.90
51982;DHT22;37998;53.416;6.730;2022-12-26T02:21:28;8.40;99.90
51982;DHT22;37998;53.416;6.730;2022-12-26T02:35:15;8.40;99.90
51982;DHT22;37998;53.416;6.730;2022-12-26T02:52:04;8.40;99.90
51982;DHT22;37998;53.416;6.730;2022-12-26T02:55:04;8.40;99.90
51982;DHT22;37998;53.416;6.730;2022-12-26T02:58:01;8.40;99.90
51982;DHT22;37998;53.416;6.730;2022-12-26T03:00:53;8.40;99.90
51982;DHT22;37998;53.416;6.730;2022-12-26T03:03:42;8.40;99.90
51982;DHT22;37998;53.416;6.730;2022-12-26T03:06:30;8.40;99.90
51982;DHT22;37998;53.416;6.730;2022-12-26T03:09:28;8.40;99.90
51982;DHT22;37998;53.416;6.730;2022-12-26T03:12:45;8.40;99.90
51982;DHT22;37998;53.416;6.730;2022-12-26T03:15:32;8.40;99.90
51982;DHT22;37998;53.416;6.730;2022-12-26T03:18:19;8.40;99.90
51982;DHT22;37998;53.416;6.730;2022-12-26T03:20:47;8.40;99.90
51982;DHT22;37998;53.416;6.730;2022-12-26T03:23:16;8.40;99.90
51982;DHT22;37998;53.416;6.730;2022-12-26T03:28:30;8.40;99.90
51982;DHT22;37998;53.416;6.730;2022-12-26T03:30:58;8.40;99.90
51982;DHT22;37998;53.416;6.730;2022-12-26T03:36:14;8.40;99.90
51982;DHT22;37998;53.416;6.730;2022-12-26T03:38:52;8.40;99.90
51982;DHT22;37998;53.416;6.730;2022-12-26T03:41:39;8.40;99.90
51982;DHT22;37998;53.416;6.730;2022-12-26T03:44:38;8.50;99.90
51982;DHT22;37998;53.416;6.730;2022-12-26T03:47:40;8.50;99.90
51982;DHT22;37998;53.416;6.730;2022-12-26T03:50:34;8.50;99.90
51982;DHT22;37998;53.416;6.730;2022-12-26T03:53:24;8.50;99.90
51982;DHT22;37998;53.416;6.730;2022-12-26T03:56:40;8.50;99.90
51982;DHT22;37998;53.416;6.730;2022-12-26T04:02:43;8.50;99.90
51982;DHT22;37998;53.416;6.730;2022-12-26T04:05:28;8.50;99.90
51982;DHT22;37998;53.416;6.730;2022-12-26T04:08:17;8.50;99.90
51982;DHT22;37998;53.416;6.730;2022-12-26T04:11:09;8.50;99.90
51982;DHT22;37998;53.416;6.730;2022-12-26T04:14:00;8.50;99.90
51982;DHT22;37998;53.416;6.730;2022-12-26T04:17:16;8.50;99.90
51982;DHT22;37998;53.416;6.730;2022-12-26T04:20:33;8.50;99.90
51982;DHT22;37998;53.416;6.730;2022-12-26T04:25:48;8.60;99.90
51982;DHT22;37998;53.416;6.730;2022-12-26T04:28:34;8.60;99.90
51982;DHT22;37998;53.416;6.730;2022-12-26T04:31:32;8.60;99.90
51982;DHT22;37998;53.416;6.730;2022-12-26T04:37:25;8.60;99.90
51982;DHT22;37998;53.416;6.730;2022-12-26T04:40:17;8.70;99.90
51982;DHT22;37998;53.416;6.730;2022-12-26T04:43:03;8.70;99.90
51982;DHT22;37998;53.416;6.730;2022-12-26T04:45:48;8.70;99.90
51982;DHT22;37998;53.416;6.730;2022-12-26T04:48:14;8.70;99.90
51982;DHT22;37998;53.416;6.730;2022-12-26T04:50:58;8.70;99.90
51982;DHT22;37998;53.416;6.730;2022-12-26T04:53:23;8.70;99.90
51982;DHT22;37998;53.416;6.730;2022-12-26T04:55:49;8.70;99.90
51982;DHT22;37998;53.416;6.730;2022-12-26T04:58:15;8.70;99.90
51982;DHT22;37998;53.416;6.730;2022-12-26T05:00:42;8.70;99.90
51982;DHT22;37998;53.416;6.730;2022-12-26T05:03:11;8.80;99.90
51982;DHT22;37998;53.416;6.730;2022-12-26T05:05:57;8.80;99.90
51982;DHT22;37998;53.416;6.730;2022-12-26T05:08:43;8.80;99.90
51982;DHT22;37998;53.416;6.730;2022-12-26T05:11:29;8.80;99.90
51982;DHT22;37998;53.416;6.730;2022-12-26T05:13:56;8.80;99.90
51982;DHT22;37998;53.416;6.730;2022-12-26T05:16:24;8.80;99.90
51982;DHT22;37998;53.416;6.730;2022-12-26T05:19:14;8.80;99.90
51982;DHT22;37998;53.416;6.730;2022-12-26T05:21:59;8.80;99.90
51982;DHT22;37998;53.416;6.730;2022-12-26T05:24:45;8.80;99.90
51982;DHT22;37998;53.416;6.730;2022-12-26T05:27:38;8.90;99.90
51982;DHT22;37998;53.416;6.730;2022-12-26T05:30:22;8.90;99.90
51982;DHT22;37998;53.416;6.730;2022-12-26T05:32:48;8.90;99.90
51982;DHT22;37998;53.416;6.730;2022-12-26T05:35:38;8.90;99.90
51982;DHT22;37998;53.416;6.730;2022-12-26T05:38:05;8.90;99.90
51982;DHT22;37998;53.416;6.730;2022-12-26T05:40:30;8.90;99.90
51982;DHT22;37998;53.416;6.730;2022-12-26T05:42:56;9.00;99.90
51982;DHT22;37998;53.416;6.730;2022-12-26T05:45:22;9.00;99.90
51982;DHT22;37998;53.416;6.730;2022-12-26T05:47:48;9.00;99.90
51982;DHT22;37998;53.416;6.730;2022-12-26T05:50:13;9.10;99.90
51982;DHT22;37998;53.416;6.730;2022-12-26T05:52:39;9.00;99.90
51982;DHT22;37998;53.416;6.730;2022-12-26T05:55:05;9.00;99.90
51982;DHT22;37998;53.416;6.730;2022-12-26T05:57:30;9.00;99.90
51982;DHT22;37998;53.416;6.730;2022-12-26T05:59:57;9.00;99.90
51982;DHT22;37998;53.416;6.730;2022-12-26T06:02:22;9.00;99.90
51982;DHT22;37998;53.416;6.730;2022-12-26T06:04:48;9.00;99.90
51982;DHT22;37998;53.416;6.730;2022-12-26T06:07:13;9.00;99.90
51982;DHT22;37998;53.416;6.730;2022-12-26T06:09:39;8.90;99.90
51982;DHT22;37998;53.416;6.730;2022-12-26T06:12:05;8.90;99.90
51982;DHT22;37998;53.416;6.730;2022-12-26T06:14:30;8.90;99.90
51982;DHT22;37998;53.416;6.730;2022-12-26T06:16:56;8.90;99.90
51982;DHT22;37998;53.416;6.730;2022-12-26T06:19:22;8.90;99.90
51982;DHT22;37998;53.416;6.730;2022-12-26T06:21:47;8.90;99.90
51982;DHT22;37998;53.416;6.730;2022-12-26T06:24:13;8.90;99.90
51982;DHT22;37998;53.416;6.730;2022-12-26T06:26:39;8.90;99.90
51982;DHT22;37998;53.416;6.730;2022-12-26T06:29:05;9.00;99.90
51982;DHT22;37998;53.416;6.730;2022-12-26T06:31:31;9.00;99.90
51982;DHT22;37998;53.416;6.730;2022-12-26T06:33:57;9.00;99.90
51982;DHT22;37998;53.416;6.730;2022-12-26T06:36:24;9.00;99.90
51982;DHT22;37998;53.416;6.730;2022-12-26T06:38:53;9.00;99.90
51982;DHT22;37998;53.416;6.730;2022-12-26T06:41:21;9.00;99.90
51982;DHT22;37998;53.416;6.730;2022-12-26T06:43:46;9.00;99.90
51982;DHT22;37998;53.416;6.730;2022-12-26T06:46:18;9.00;99.90
51982;DHT22;37998;53.416;6.730;2022-12-26T06:48:44;9.00;99.90
51982;DHT22;37998;53.416;6.730;2022-12-26T06:51:13;8.90;99.90
51982;DHT22;37998;53.416;6.730;2022-12-26T06:53:39;9.00;99.90
51982;DHT22;37998;53.416;6.730;2022-12-26T06:56:12;9.00;99.90
51982;DHT22;37998;53.416;6.730;2022-12-26T06:58:38;9.00;99.90
51982;DHT22;37998;53.416;6.730;2022-12-26T07:01:08;9.00;99.90
51982;DHT22;37998;53.416;6.730;2022-12-26T07:03:34;9.00;99.90
51982;DHT22;37998;53.416;6.730;2022-12-26T07:06:23;9.00;99.90
51982;DHT22;37998;53.416;6.730;2022-12-26T07:08:50;9.00;99.90
51982;DHT22;37998;53.416;6.730;2022-12-26T07:11:18;9.00;99.90
51982;DHT22;37998;53.416;6.730;2022-12-26T07:13:44;9.00;99.90
51982;DHT22;37998;53.416;6.730;2022-12-26T07:16:10;9.00;99.90
51982;DHT22;37998;53.416;6.730;2022-12-26T07:18:36;9.00;99.90
51982;DHT22;37998;53.416;6.730;2022-12-26T07:21:06;9.10;99.90
51982;DHT22;37998;53.416;6.730;2022-12-26T07:23:32;9.10;99.90
51982;DHT22;37998;53.416;6.730;2022-12-26T07:25:58;9.10;99.90
51982;DHT22;37998;53.416;6.730;2022-12-26T07:28:24;9.10;99.90
51982;DHT22;37998;53.416;6.730;2022-12-26T07:30:50;9.10;99.90
51982;DHT22;37998;53.416;6.730;2022-12-26T07:33:16;9.10;99.90
51982;DHT22;37998;53.416;6.730;2022-12-26T07:35:42;9.00;99.90
51982;DHT22;37998;53.416;6.730;2022-12-26T07:38:08;9.10;99.90
51982;DHT22;37998;53.416;6.730;2022-12-26T07:40:33;9.10;99.90
51982;DHT22;37998;53.416;6.730;2022-12-26T07:42:59;9.10;99.90
51982;DHT22;37998;53.416;6.730;2022-12-26T07:45:25;9.20;99.90
51982;DHT22;37998;53.416;6.730;2022-12-26T07:47:55;9.20;99.90
51982;DHT22;37998;53.416;6.730;2022-12-26T07:50:21;9.20;99.90
51982;DHT22;37998;53.416;6.730;2022-12-26T07:52:47;9.20;99.90
51982;DHT22;37998;53.416;6.730;2022-12-26T07:55:13;9.20;99.90
51982;DHT22;37998;53.416;6.730;2022-12-26T07:57:39;9.30;99.90
51982;DHT22;37998;53.416;6.730;2022-12-26T08:00:05;9.20;99.90
51982;DHT22;37998;53.416;6.730;2022-12-26T08:02:31;9.20;99.90
51982;DHT22;37998;53.416;6.730;2022-12-26T08:04:57;9.20;99.90
51982;DHT22;37998;53.416;6.730;2022-12-26T08:07:22;9.20;99.90
51982;DHT22;37998;53.416;6.730;2022-12-26T08:09:48;9.20;99.90
51982;DHT22;37998;53.416;6.730;2022-12-26T08:12:13;9.20;99.90
51982;DHT22;37998;53.416;6.730;2022-12-26T08:14:40;9.20;99.90
51982;DHT22;37998;53.416;6.730;2022-12-26T08:17:05;9.20;99.90
51982;DHT22;37998;53.416;6.730;2022-12-26T08:19:31;9.30;99.90
51982;DHT22;37998;53.416;6.730;2022-12-26T08:21:57;9.20;99.90
51982;DHT22;37998;53.416;6.730;2022-12-26T08:24:23;9.20;99.90
51982;DHT22;37998;53.416;6.730;2022-12-26T08:26:48;9.20;99.90
51982;DHT22;37998;53.416;6.730;2022-12-26T08:29:14;9.30;99.90
51982;DHT22;37998;53.416;6.730;2022-12-26T08:31:40;9.30;99.90
51982;DHT22;37998;53.416;6.730;2022-12-26T08:34:05;9.30;99.90
51982;DHT22;37998;53.416;6.730;2022-12-26T08:36:31;9.20;99.90
51982;DHT22;37998;53.416;6.730;2022-12-26T08:38:57;9.30;99.90
51982;DHT22;37998;53.416;6.730;2022-12-26T08:41:24;9.30;99.90
51982;DHT22;37998;53.416;6.730;2022-12-26T08:43:51;9.30;99.90
51982;DHT22;37998;53.416;6.730;2022-12-26T08:46:19;9.40;99.90
51982;DHT22;37998;53.416;6.730;2022-12-26T08:48:45;9.40;99.90
51982;DHT22;37998;53.416;6.730;2022-12-26T08:51:17;9.40;99.90
51982;DHT22;37998;53.416;6.730;2022-12-26T08:53:44;9.50;99.90
51982;DHT22;37998;53.416;6.730;2022-12-26T08:56:16;9.40;99.90
51982;DHT22;37998;53.416;6.730;2022-12-26T08:58:42;9.40;99.90
51982;DHT22;37998;53.416;6.730;2022-12-26T09:01:13;9.30;99.90
51982;DHT22;37998;53.416;6.730;2022-12-26T09:03:40;9.40;99.90
51982;DHT22;37998;53.416;6.730;2022-12-26T09:06:06;9.40;99.90
51982;DHT22;37998;53.416;6.730;2022-12-26T09:08:33;9.30;99.90
51982;DHT22;37998;53.416;6.730;2022-12-26T09:11:12;9.30;99.90
51982;DHT22;37998;53.416;6.730;2022-12-26T09:13:38;9.40;99.90
51982;DHT22;37998;53.416;6.730;2022-12-26T09:16:10;9.40;99.90
51982;DHT22;37998;53.416;6.730;2022-12-26T09:18:37;9.40;99.90
51982;DHT22;37998;53.416;6.730;2022-12-26T09:21:04;9.30;99.90
51982;DHT22;37998;53.416;6.730;2022-12-26T09:23:30;9.30;99.90
51982;DHT22;37998;53.416;6.730;2022-12-26T09:26:12;9.30;99.90
51982;DHT22;37998;53.416;6.730;2022-12-26T09:28:38;9.30;99.90
51982;DHT22;37998;53.416;6.730;2022-12-26T09:31:10;9.30;99.90
51982;DHT22;37998;53.416;6.730;2022-12-26T09:33:36;9.30;99.90
51982;DHT22;37998;53.416;6.730;2022-12-26T09:36:08;9.30;99.90
51982;DHT22;37998;53.416;6.730;2022-12-26T09:38:34;9.40;99.90
51982;DHT22;37998;53.416;6.730;2022-12-26T09:46:35;9.30;99.90
51982;DHT22;37998;53.416;6.730;2022-12-26T09:51:35;9.30;99.90
51982;DHT22;37998;53.416;6.730;2022-12-26T09:54:05;9.30;99.90
51982;DHT22;37998;53.416;6.730;2022-12-26T09:56:35;9.30;99.90
51982;DHT22;37998;53.416;6.730;2022-12-26T09:59:12;9.30;99.90
51982;DHT22;37998;53.416;6.730;2022-12-26T10:01:39;9.30;99.90
51982;DHT22;37998;53.416;6.730;2022-12-26T10:04:25;9.20;99.90
51982;DHT22;37998;53.416;6.730;2022-12-26T10:09:47;9.10;99.90
51982;DHT22;37998;53.416;6.730;2022-12-26T10:12:32;9.10;99.90
51982;DHT22;37998;53.416;6.730;2022-12-26T10:18:04;8.70;99.90
51982;DHT22;37998;53.416;6.730;2022-12-26T10:20:53;8.60;99.90
51982;DHT22;37998;53.416;6.730;2022-12-26T10:23:38;8.60;99.90
51982;DHT22;37998;53.416;6.730;2022-12-26T10:26:22;8.50;99.90
51982;DHT22;37998;53.416;6.730;2022-12-26T10:28:59;8.40;99.90
51982;DHT22;37998;53.416;6.730;2022-12-26T10:34:01;8.40;99.90
51982;DHT22;37998;53.416;6.730;2022-12-26T10:36:41;8.30;99.90
51982;DHT22;37998;53.416;6.730;2022-12-26T10:39:22;8.30;99.90
51982;DHT22;37998;53.416;6.730;2022-12-26T10:41:52;8.20;99.90
51982;DHT22;37998;53.416;6.730;2022-12-26T10:44:19;8.10;99.90
51982;DHT22;37998;53.416;6.730;2022-12-26T10:47:19;8.20;99.90
51982;DHT22;37998;53.416;6.730;2022-12-26T10:49:47;8.20;99.90
51982;DHT22;37998;53.416;6.730;2022-12-26T10:52:25;8.30;99.90
51982;DHT22;37998;53.416;6.730;2022-12-26T10:54:54;8.20;99.90
51982;DHT22;37998;53.416;6.730;2022-12-26T10:57:22;8.20;99.90
51982;DHT22;37998;53.416;6.730;2022-12-26T10:59:51;8.20;99.90
51982;DHT22;37998;53.416;6.730;2022-12-26T11:02:28;8.20;99.90
51982;DHT22;37998;53.416;6.730;2022-12-26T11:05:02;8.10;99.90
51982;DHT22;37998;53.416;6.730;2022-12-26T11:07:31;8.00;99.90
51982;DHT22;37998;53.416;6.730;2022-12-26T11:09:58;8.00;99.90
51982;DHT22;37998;53.416;6.730;2022-12-26T11:15:06;7.90;99.90
51982;DHT22;37998;53.416;6.730;2022-12-26T11:17:39;7.80;99.90
51982;DHT22;37998;53.416;6.730;2022-12-26T11:20:21;7.80;99.90
51982;DHT22;37998;53.416;6.730;2022-12-26T11:22:48;7.80;99.90
51982;DHT22;37998;53.416;6.730;2022-12-26T11:25:24;7.80;99.90
51982;DHT22;37998;53.416;6.730;2022-12-26T11:27:52;7.80;99.90
51982;DHT22;37998;53.416;6.730;2022-12-26T11:32:50;7.70;99.90
51982;DHT22;37998;53.416;6.730;2022-12-26T11:35:21;7.70;99.90
51982;DHT22;37998;53.416;6.730;2022-12-26T11:37:54;7.70;99.90
51982;DHT22;37998;53.416;6.730;2022-12-26T11:40:23;7.80;99.90
51982;DHT22;37998;53.416;6.730;2022-12-26T11:42:53;7.70;99.90
51982;DHT22;37998;53.416;6.730;2022-12-26T11:45:22;7.70;99.90
51982;DHT22;37998;53.416;6.730;2022-12-26T11:47:49;7.70;99.90
51982;DHT22;37998;53.416;6.730;2022-12-26T11:50:17;7.70;99.90
51982;DHT22;37998;53.416;6.730;2022-12-26T11:57:59;7.70;99.90
51982;DHT22;37998;53.416;6.730;2022-12-26T12:00:27;7.60;99.90
51982;DHT22;37998;53.416;6.730;2022-12-26T12:02:53;7.50;99.90
51982;DHT22;37998;53.416;6.730;2022-12-26T12:10:58;7.40;99.90
51982;DHT22;37998;53.416;6.730;2022-12-26T12:27:25;6.80;99.90
51982;DHT22;37998;53.416;6.730;2022-12-26T12:30:08;7.60;99.90
51982;DHT22;37998;53.416;6.730;2022-12-26T12:32:40;7.60;99.90
51982;DHT22;37998;53.416;6.730;2022-12-26T12:41:18;8.00;99.90
51982;DHT22;37998;53.416;6.730;2022-12-26T12:43:55;7.40;99.90
51982;DHT22;37998;53.416;6.730;2022-12-26T13:00:43;7.70;99.90
51982;DHT22;37998;53.416;6.730;2022-12-26T13:03:25;7.70;99.90
51982;DHT22;37998;53.416;6.730;2022-12-26T13:06:11;7.70;99.90
51982;DHT22;37998;53.416;6.730;2022-12-26T13:08:46;7.60;99.90
51982;DHT22;37998;53.416;6.730;2022-12-26T13:11:37;7.60;99.90
51982;DHT22;37998;53.416;6.730;2022-12-26T13:14:12;7.60;99.90
51982;DHT22;37998;53.416;6.730;2022-12-26T13:16:45;7.60;99.90
51982;DHT22;37998;53.416;6.730;2022-12-26T13:19:40;7.60;99.90
51982;DHT22;37998;53.416;6.730;2022-12-26T13:22:24;7.60;99.90
51982;DHT22;37998;53.416;6.730;2022-12-26T13:24:58;7.60;99.90
51982;DHT22;37998;53.416;6.730;2022-12-26T13:27:28;7.50;99.90
51982;DHT22;37998;53.416;6.730;2022-12-26T13:29:55;7.50;99.90
51982;DHT22;37998;53.416;6.730;2022-12-26T13:34:51;7.40;99.90
51982;DHT22;37998;53.416;6.730;2022-12-26T13:42:44;7.40;99.90
51982;DHT22;37998;53.416;6.730;2022-12-26T13:50:51;7.40;99.90
51982;DHT22;37998;53.416;6.730;2022-12-26T13:58:59;7.40;99.90
51982;DHT22;37998;53.416;6.730;2022-12-26T14:02:03;7.40;99.90
51982;DHT22;37998;53.416;6.730;2022-12-26T14:07:43;7.30;99.90
51982;DHT22;37998;53.416;6.730;2022-12-26T14:10:18;7.20;99.90
51982;DHT22;37998;53.416;6.730;2022-12-26T14:15:54;7.20;99.90
51982;DHT22;37998;53.416;6.730;2022-12-26T14:18:36;7.20;99.90
51982;DHT22;37998;53.416;6.730;2022-12-26T14:24:27;7.20;99.90
51982;DHT22;37998;53.416;6.730;2022-12-26T14:29:57;7.10;99.90
51982;DHT22;37998;53.416;6.730;2022-12-26T14:33:07;7.10;99.90
51982;DHT22;37998;53.416;6.730;2022-12-26T14:35:53;7.10;99.90
51982;DHT22;37998;53.416;6.730;2022-12-26T14:38:43;7.10;99.90
51982;DHT22;37998;53.416;6.730;2022-12-26T14:41:15;7.10;99.90
51982;DHT22;37998;53.416;6.730;2022-12-26T14:46:57;7.00;99.90
51982;DHT22;37998;53.416;6.730;2022-12-26T14:49:35;7.00;99.90
51982;DHT22;37998;53.416;6.730;2022-12-26T14:54:53;6.90;99.90
51982;DHT22;37998;53.416;6.730;2022-12-26T15:00:29;6.80;99.90
51982;DHT22;37998;53.416;6.730;2022-12-26T15:05:31;6.80;99.90
51982;DHT22;37998;53.416;6.730;2022-12-26T15:08:21;6.70;99.90
51982;DHT22;37998;53.416;6.730;2022-12-26T15:10:58;6.70;99.90
51982;DHT22;37998;53.416;6.730;2022-12-26T15:16:27;6.60;99.90
51982;DHT22;37998;53.416;6.730;2022-12-26T15:30:09;6.40;99.90
51982;DHT22;37998;53.416;6.730;2022-12-26T15:41:11;6.30;99.90
51982;DHT22;37998;53.416;6.730;2022-12-26T15:52:24;6.30;99.90
51982;DHT22;37998;53.416;6.730;2022-12-26T15:57:54;6.10;99.90
51982;DHT22;37998;53.416;6.730;2022-12-26T16:00:28;6.00;99.90
51982;DHT22;37998;53.416;6.730;2022-12-26T16:05:57;5.90;99.90
51982;DHT22;37998;53.416;6.730;2022-12-26T16:14:00;5.80;99.90
51982;DHT22;37998;53.416;6.730;2022-12-26T16:16:30;5.80;99.90
51982;DHT22;37998;53.416;6.730;2022-12-26T16:18:56;5.70;99.90
51982;DHT22;37998;53.416;6.730;2022-12-26T16:21:25;6.60;99.90
51982;DHT22;37998;53.416;6.730;2022-12-26T16:24:12;5.60;99.90
51982;DHT22;37998;53.416;6.730;2022-12-26T16:26:45;5.60;99.90
51982;DHT22;37998;53.416;6.730;2022-12-26T16:29:15;5.50;99.90
51982;DHT22;37998;53.416;6.730;2022-12-26T16:31:42;5.50;99.90
51982;DHT22;37998;53.416;6.730;2022-12-26T16:34:16;5.40;99.90
51982;DHT22;37998;53.416;6.730;2022-12-26T16:36:43;5.40;99.90
51982;DHT22;37998;53.416;6.730;2022-12-26T16:39:09;5.30;99.90
51982;DHT22;37998;53.416;6.730;2022-12-26T16:42:27;5.30;99.90
51982;DHT22;37998;53.416;6.730;2022-12-26T16:44:39;5.30;99.90
51982;DHT22;37998;53.416;6.730;2022-12-26T16:47:10;5.20;99.90
51982;DHT22;37998;53.416;6.730;2022-12-26T16:49:37;5.20;99.90
51982;DHT22;37998;53.416;6.730;2022-12-26T16:52:06;5.20;99.90
51982;DHT22;37998;53.416;6.730;2022-12-26T16:54:39;5.10;99.90
51982;DHT22;37998;53.416;6.730;2022-12-26T16:57:20;5.50;99.90
51982;DHT22;37998;53.416;6.730;2022-12-26T16:59:57;5.10;99.90
51982;DHT22;37998;53.416;6.730;2022-12-26T17:02:24;5.00;99.90
51982;DHT22;37998;53.416;6.730;2022-12-26T17:05:02;5.00;99.90
51982;DHT22;37998;53.416;6.730;2022-12-26T17:07:29;5.00;99.90
51982;DHT22;37998;53.416;6.730;2022-12-26T17:09:58;4.90;99.90
51982;DHT22;37998;53.416;6.730;2022-12-26T17:12:32;4.90;99.90
51982;DHT22;37998;53.416;6.730;2022-12-26T17:14:59;4.80;99.90
51982;DHT22;37998;53.416;6.730;2022-12-26T17:17:32;4.80;99.90
51982;DHT22;37998;53.416;6.730;2022-12-26T17:22:47;4.80;99.90
51982;DHT22;37998;53.416;6.730;2022-12-26T17:33:15;4.70;99.90
51982;DHT22;37998;53.416;6.730;2022-12-26T17:35:44;4.70;99.90
51982;DHT22;37998;53.416;6.730;2022-12-26T17:38:17;4.70;99.90
51982;DHT22;37998;53.416;6.730;2022-12-26T17:40:45;4.70;99.90
51982;DHT22;37998;53.416;6.730;2022-12-26T17:45:42;4.60;99.90
51982;DHT22;37998;53.416;6.730;2022-12-26T17:48:09;4.60;99.90
51982;DHT22;37998;53.416;6.730;2022-12-26T17:50:38;4.60;99.90
51982;DHT22;37998;53.416;6.730;2022-12-26T17:53:29;4.70;99.90
51982;DHT22;37998;53.416;6.730;2022-12-26T17:55:58;4.60;99.90
51982;DHT22;37998;53.416;6.730;2022-12-26T17:58:26;4.50;99.90
51982;DHT22;37998;53.416;6.730;2022-12-26T18:00:53;4.60;99.90
51982;DHT22;37998;53.416;6.730;2022-12-26T18:03:19;4.50;99.90
51982;DHT22;37998;53.416;6.730;2022-12-26T18:05:46;4.50;99.90
51982;DHT22;37998;53.416;6.730;2022-12-26T18:08:35;4.50;99.90
51982;DHT22;37998;53.416;6.730;2022-12-26T18:11:04;4.50;99.90
51982;DHT22;37998;53.416;6.730;2022-12-26T18:13:30;4.40;99.90
51982;DHT22;37998;53.416;6.730;2022-12-26T18:15:57;4.40;99.90
51982;DHT22;37998;53.416;6.730;2022-12-26T18:18:40;4.40;99.90
51982;DHT22;37998;53.416;6.730;2022-12-26T18:21:10;4.40;99.90
51982;DHT22;37998;53.416;6.730;2022-12-26T18:23:36;4.40;99.90
51982;DHT22;37998;53.416;6.730;2022-12-26T18:26:11;4.40;99.90
51982;DHT22;37998;53.416;6.730;2022-12-26T18:28:39;4.40;99.90
51982;DHT22;37998;53.416;6.730;2022-12-26T18:31:05;4.40;99.90
51982;DHT22;37998;53.416;6.730;2022-12-26T18:33:30;4.40;99.90
51982;DHT22;37998;53.416;6.730;2022-12-26T18:35:56;4.40;99.90
51982;DHT22;37998;53.416;6.730;2022-12-26T18:38:21;4.40;99.90
51982;DHT22;37998;53.416;6.730;2022-12-26T18:40:50;4.40;99.90
51982;DHT22;37998;53.416;6.730;2022-12-26T18:43:17;4.40;99.90
51982;DHT22;37998;53.416;6.730;2022-12-26T18:45:43;4.40;99.90
51982;DHT22;37998;53.416;6.730;2022-12-26T18:48:13;4.30;99.90
51982;DHT22;37998;53.416;6.730;2022-12-26T18:50:40;4.30;99.90
51982;DHT22;37998;53.416;6.730;2022-12-26T18:53:06;4.30;99.90
51982;DHT22;37998;53.416;6.730;2022-12-26T18:55:31;4.30;99.90
51982;DHT22;37998;53.416;6.730;2022-12-26T18:57:58;4.80;99.90
51982;DHT22;37998;53.416;6.730;2022-12-26T19:00:24;4.30;99.90
51982;DHT22;37998;53.416;6.730;2022-12-26T19:02:50;4.30;99.90
51982;DHT22;37998;53.416;6.730;2022-12-26T19:05:19;4.30;99.90
51982;DHT22;37998;53.416;6.730;2022-12-26T19:07:45;4.30;99.90
51982;DHT22;37998;53.416;6.730;2022-12-26T19:10:14;4.30;99.90
51982;DHT22;37998;53.416;6.730;2022-12-26T19:12:41;4.20;99.90
51982;DHT22;37998;53.416;6.730;2022-12-26T19:15:07;4.30;99.90
51982;DHT22;37998;53.416;6.730;2022-12-26T19:17:33;4.30;99.90
51982;DHT22;37998;53.416;6.730;2022-12-26T19:19:59;4.40;99.90
51982;DHT22;37998;53.416;6.730;2022-12-26T19:22:25;4.50;99.90
51982;DHT22;37998;53.416;6.730;2022-12-26T19:24:51;4.60;99.90
51982;DHT22;37998;53.416;6.730;2022-12-26T19:27:18;4.60;99.90
51982;DHT22;37998;53.416;6.730;2022-12-26T19:29:43;4.60;99.90
51982;DHT22;37998;53.416;6.730;2022-12-26T19:32:09;4.60;99.90
51982;DHT22;37998;53.416;6.730;2022-12-26T19:34:35;4.60;99.90
51982;DHT22;37998;53.416;6.730;2022-12-26T19:37:01;4.60;99.90
51982;DHT22;37998;53.416;6.730;2022-12-26T19:39:27;4.60;99.90
51982;DHT22;37998;53.416;6.730;2022-12-26T19:41:52;4.60;99.90
51982;DHT22;37998;53.416;6.730;2022-12-26T19:44:18;4.60;99.90